createdAt,value
2022-07-29T00:02:36.398Z,147640.28
2022-07-29T00:07:38.959Z,147639.03
2022-07-29T00:12:41.537Z,147642.75
2022-07-29T00:17:45.417Z,147649.00
2022-07-29T00:22:48.310Z,147652.72
2022-07-29T00:27:50.854Z,147657.69
2022-07-29T00:32:54.885Z,147655.22
2022-07-29T00:37:57.407Z,147668.88
2022-07-29T00:42:59.976Z,147668.88
2022-07-29T00:48:05.518Z,147657.69
2022-07-29T00:53:09.388Z,147647.75
2022-07-29T00:58:14.287Z,147629.09
2022-07-29T01:03:20.481Z,147620.41
2022-07-29T01:08:24.688Z,147605.53
2022-07-29T01:13:27.665Z,147601.78
2022-07-29T01:18:36.982Z,147584.38
2022-07-29T01:24:00.095Z,147580.66
2022-07-29T01:29:08.660Z,147568.25
2022-07-29T01:34:16.500Z,147562.03
2022-07-29T01:39:23.199Z,147544.66
2022-07-29T01:44:33.787Z,147538.47
2022-07-29T01:49:41.726Z,147526.00
2022-07-29T01:54:47.385Z,147518.56
2022-07-29T01:59:53.019Z,147511.09
2022-07-29T02:04:57.285Z,147503.66
2022-07-29T02:10:02.380Z,147492.50
2022-07-29T02:15:11.454Z,147488.78
2022-07-29T02:20:15.208Z,147481.34
2022-07-29T02:25:19.361Z,147477.63
2022-07-29T02:30:24.754Z,147473.88
2022-07-29T02:35:27.877Z,147461.38
2022-07-29T02:40:40.126Z,147455.19
2022-07-29T02:45:45.449Z,147446.50
2022-07-29T02:50:53.845Z,147431.63
2022-07-29T02:55:59.244Z,147425.41
2022-07-29T03:01:06.559Z,147421.69
2022-07-29T03:06:10.441Z,147413.00
2022-07-29T03:11:41.432Z,147410.47
2022-07-29T03:16:54.045Z,147405.53
2022-07-29T03:21:58.975Z,147396.84
2022-07-29T03:27:01.994Z,147391.88
2022-07-29T03:32:08.566Z,147386.91
2022-07-29T03:37:11.339Z,147386.91
2022-07-29T03:42:18.033Z,147400.56
2022-07-29T03:47:50.021Z,147399.31
2022-07-29T03:52:52.155Z,147383.19
2022-07-29T03:57:55.702Z,147362.09
2022-07-29T04:02:59.782Z,147339.75
2022-07-29T04:08:02.592Z,147329.81
2022-07-29T04:13:05.137Z,147317.41
2022-07-29T04:18:09.041Z,147316.19
2022-07-29T04:23:11.631Z,147323.63
2022-07-29T04:28:14.553Z,147328.56
2022-07-29T04:33:20.966Z,147333.53
2022-07-29T04:38:23.781Z,147343.47
2022-07-29T04:43:26.296Z,147344.69
2022-07-29T04:48:31.113Z,147357.16
2022-07-29T04:53:33.678Z,147355.91
2022-07-29T04:58:36.932Z,147360.88
2022-07-29T05:03:40.913Z,147365.81
2022-07-29T05:08:43.515Z,147379.47
2022-07-29T05:13:47.077Z,147404.28
2022-07-29T05:18:51.075Z,147432.84
2022-07-29T05:23:53.619Z,147450.22
2022-07-29T05:28:56.186Z,147462.63
2022-07-29T05:34:00.193Z,147471.41
2022-07-29T05:39:02.866Z,147491.25
2022-07-29T05:44:05.420Z,147466.34
2022-07-29T05:49:09.501Z,147453.94
2022-07-29T05:54:12.285Z,147401.78
2022-07-29T05:59:18.239Z,147309.97
2022-07-29T06:04:22.477Z,147193.34
2022-07-29T06:09:25.207Z,147132.50
2022-07-29T06:14:29.250Z,147133.75
2022-07-29T06:19:33.369Z,147158.53
2022-07-29T06:24:35.919Z,147182.19
2022-07-29T06:29:38.653Z,147224.34
2022-07-29T06:34:42.640Z,147277.69
2022-07-29T06:39:48.865Z,147307.50
2022-07-29T06:44:51.375Z,147327.34
2022-07-29T06:49:55.512Z,147318.66
2022-07-29T06:54:58.066Z,147343.47
2022-07-29T07:00:00.706Z,147391.88
2022-07-29T07:05:06.244Z,147404.28
2022-07-29T07:10:09.635Z,147481.34
2022-07-29T07:15:12.645Z,147506.16
2022-07-29T07:20:16.684Z,147558.31
2022-07-29T07:25:19.258Z,147640.28
2022-07-29T07:30:22.164Z,147703.69
2022-07-29T07:35:27.488Z,147732.22
2022-07-29T07:40:30.176Z,147727.25
2022-07-29T07:45:34.739Z,147747.13
2022-07-29T07:50:38.987Z,147696.19
2022-07-29T07:56:08.203Z,147683.75
2022-07-29T08:01:05.364Z,147652.72
2022-07-29T08:06:09.289Z,147699.91
2022-07-29T08:11:12.023Z,147709.88
2022-07-29T08:16:16.196Z,147711.13
2022-07-29T08:21:20.561Z,147707.41
2022-07-29T08:26:23.529Z,147718.56
2022-07-29T08:31:26.217Z,147671.34
2022-07-29T08:36:30.256Z,147642.75
2022-07-29T08:41:33.023Z,147680.03
2022-07-29T08:46:36.235Z,147673.84
2022-07-29T08:51:47.099Z,147692.44
2022-07-29T08:56:52.630Z,147718.56
2022-07-29T09:02:00.525Z,147733.47
2022-07-29T09:07:06.586Z,147729.75
2022-07-29T09:12:09.519Z,147732.22
2022-07-29T09:17:12.111Z,147743.41
2022-07-29T09:22:31.167Z,147774.53
2022-07-29T09:27:34.648Z,147764.59
2022-07-29T09:32:56.738Z,147784.47
2022-07-29T09:38:11.950Z,147816.75
2022-07-29T09:43:15.419Z,147860.28
2022-07-29T09:48:19.659Z,147910.00
2022-07-29T09:53:34.376Z,147972.16
2022-07-29T09:58:36.911Z,148035.63
2022-07-29T10:03:53.157Z,148087.88
2022-07-29T10:08:57.048Z,148146.34
2022-07-29T10:14:00.010Z,148179.94
2022-07-29T10:19:03.050Z,148242.16
2022-07-29T10:24:14.981Z,148260.81
2022-07-29T10:29:17.729Z,148244.66
2022-07-29T10:34:30.260Z,148292.00
2022-07-29T10:39:52.546Z,148409.00
2022-07-29T10:44:56.025Z,148498.69
2022-07-29T10:50:01.910Z,148565.91
2022-07-29T10:55:06.797Z,148633.22
2022-07-29T11:00:29.134Z,148989.78
2022-07-29T11:05:39.989Z,149538.94
2022-07-29T11:10:44.994Z,149996.34
2022-07-29T11:15:55.957Z,150152.72
2022-07-29T11:20:58.499Z,149768.81
2022-07-29T11:26:23.387Z,149985.09
2022-07-29T11:31:36.579Z,149935.09
2022-07-29T11:37:17.736Z,149821.31
2022-07-29T11:42:45.156Z,149846.28
2022-07-29T11:47:53.414Z,149878.78
2022-07-29T11:52:56.073Z,150155.22
2022-07-29T11:58:03.736Z,150339.13
2022-07-29T12:03:09.064Z,150439.31
2022-07-29T12:08:15.527Z,150567.03
2022-07-29T12:13:22.200Z,150599.53
2022-07-29T12:18:25.303Z,150712.28
2022-07-29T12:23:29.438Z,150865.16
2022-07-29T12:28:40.491Z,150897.75
2022-07-29T12:33:43.698Z,150733.59
2022-07-29T12:38:46.644Z,150672.22
2022-07-29T12:43:57.241Z,150747.38
2022-07-29T12:48:59.944Z,150698.47
2022-07-29T12:54:08.332Z,150434.31
2022-07-29T12:59:17.687Z,150370.41
2022-07-29T13:04:27.721Z,150653.38
2022-07-29T13:09:39.503Z,150550.72
2022-07-29T13:14:45.188Z,150649.63
2022-07-29T13:19:51.598Z,150680.97
2022-07-29T13:24:56.297Z,150752.38
2022-07-29T13:30:01.955Z,150907.78
2022-07-29T13:35:07.840Z,150810.00
2022-07-29T13:40:12.018Z,150687.22
2022-07-29T13:45:15.991Z,150788.72
2022-07-29T13:50:18.520Z,150759.91
2022-07-29T13:55:21.460Z,150910.28
2022-07-29T14:00:25.579Z,151004.22
2022-07-29T14:05:28.285Z,151005.47
2022-07-29T14:10:30.819Z,150886.44
2022-07-29T14:15:34.762Z,150896.47
2022-07-29T14:20:41.970Z,151048.16
2022-07-29T14:25:44.726Z,150937.81
2022-07-29T14:30:49.109Z,150817.50
2022-07-29T14:35:51.754Z,150827.53
2022-07-29T14:40:54.329Z,150633.38
2022-07-29T14:46:02.917Z,150534.41
2022-07-29T14:51:07.776Z,150319.13
2022-07-29T14:56:34.210Z,150509.38
2022-07-29T15:01:34.244Z,150618.34
2022-07-29T15:06:37.282Z,150649.63
2022-07-29T15:11:39.806Z,150690.97
2022-07-29T15:16:47.920Z,150771.16
2022-07-29T15:21:50.866Z,150655.88
2022-07-29T15:26:53.410Z,150731.09
2022-07-29T15:31:57.715Z,150614.59
2022-07-29T15:37:00.655Z,150748.63
2022-07-29T15:42:04.563Z,150807.50
2022-07-29T15:47:08.463Z,150927.81
2022-07-29T15:52:11.986Z,150863.91
2022-07-29T15:57:15.185Z,150922.81
2022-07-29T16:02:19.103Z,150925.31
2022-07-29T16:07:21.861Z,150927.81
2022-07-29T16:12:24.969Z,150991.72
2022-07-29T16:17:28.935Z,151005.47
2022-07-29T16:22:31.683Z,150995.47
2022-07-29T16:27:37.812Z,150985.44
2022-07-29T16:32:42.278Z,150950.34
2022-07-29T16:37:44.903Z,151053.16
2022-07-29T16:42:47.729Z,150886.44
2022-07-29T16:47:51.825Z,150823.78
2022-07-29T16:52:55.386Z,150695.97
2022-07-29T16:57:58.016Z,150647.13
2022-07-29T17:03:01.983Z,150674.69
2022-07-29T17:08:04.586Z,150712.28
2022-07-29T17:13:07.120Z,150677.22
2022-07-29T17:18:13.776Z,150645.88
2022-07-29T17:23:16.319Z,150562.03
2022-07-29T17:28:18.855Z,150509.38
2022-07-29T17:33:22.719Z,150456.81
2022-07-29T17:38:25.261Z,150404.25
2022-07-29T17:43:28.010Z,150309.09
2022-07-29T17:48:31.960Z,150405.50
2022-07-29T17:53:34.596Z,150329.13
2022-07-29T17:58:37.654Z,150143.97
2022-07-29T18:03:42.162Z,149977.59
2022-07-29T18:08:47.433Z,149831.28
2022-07-29T18:13:49.965Z,149750.09
2022-07-29T18:18:53.859Z,149690.09
2022-07-29T18:23:56.490Z,149635.13
2022-07-29T18:28:59.045Z,149578.91
2022-07-29T18:39:05.425Z,149447.78
2022-07-29T18:44:09.574Z,149387.84
2022-07-29T18:49:14.154Z,149344.16
2022-07-29T18:54:18.224Z,149301.66
2022-07-29T18:59:21.384Z,149248.00
2022-07-29T19:04:25.343Z,149181.88
2022-07-29T19:09:27.872Z,149104.50
2022-07-29T19:14:30.439Z,149032.13
2022-07-29T19:19:34.342Z,148947.34
2022-07-29T19:24:36.938Z,148857.53
2022-07-29T19:29:39.578Z,148785.25
2022-07-29T19:35:03.945Z,148727.94
2022-07-29T19:40:07.875Z,148660.63
2022-07-29T19:45:11.723Z,148579.66
2022-07-29T19:50:16.382Z,148518.63
2022-07-29T19:55:19.413Z,148460.06
2022-07-29T20:00:23.760Z,148411.50
2022-07-29T20:05:28.392Z,148369.16
2022-07-29T20:10:31.174Z,148348.00
2022-07-29T20:15:33.749Z,148391.53
2022-07-29T20:20:37.782Z,148385.31
2022-07-29T20:25:40.321Z,148377.84
2022-07-29T20:30:42.936Z,148361.69
2022-07-29T20:35:47.237Z,148346.78
2022-07-29T20:40:50.677Z,148329.31
2022-07-29T20:45:53.263Z,148311.91
2022-07-29T20:50:57.284Z,148287.03
2022-07-29T20:55:59.787Z,148254.59
2022-07-29T21:01:02.665Z,148222.22
2022-07-29T21:06:07.803Z,148198.59
2022-07-29T21:11:10.501Z,148162.50
2022-07-29T21:16:14.770Z,148140.13
2022-07-29T21:21:19.294Z,148125.22
2022-07-29T21:26:21.891Z,148086.63
2022-07-29T21:31:24.598Z,148050.59
2022-07-29T21:36:47.825Z,148021.97
2022-07-29T21:41:50.999Z,147990.81
2022-07-29T21:46:53.559Z,147962.22
2022-07-29T21:51:57.454Z,147932.38
2022-07-29T21:57:00.497Z,147939.88
2022-07-29T22:02:03.519Z,147954.78
2022-07-29T22:07:07.435Z,147953.53
2022-07-29T22:12:11.295Z,147944.84
2022-07-29T22:17:14.052Z,147928.66
2022-07-29T22:22:18.007Z,147916.22
2022-07-29T22:27:20.768Z,147895.09
2022-07-29T22:32:24.701Z,147852.81
2022-07-29T22:37:28.717Z,147814.28
2022-07-29T22:42:31.364Z,147795.66
2022-07-29T22:47:46.494Z,147763.38
2022-07-29T22:52:52.375Z,147734.72
2022-07-29T22:57:55.121Z,147713.59
2022-07-29T23:02:57.669Z,147687.50
2022-07-29T23:08:01.671Z,147670.09
2022-07-29T23:13:04.310Z,147652.72
2022-07-29T23:18:06.979Z,147644.03
2022-07-29T23:23:11.257Z,147617.94
2022-07-29T23:28:14.270Z,147601.78
2022-07-29T23:33:16.810Z,147585.63
2022-07-29T23:38:20.684Z,147584.38
2022-07-29T23:43:23.346Z,147570.72
2022-07-29T23:48:27.055Z,147543.41
2022-07-29T23:53:30.976Z,147509.88
2022-07-29T23:58:33.633Z,147486.28
